Time;durP1;ratioP1;P1;durP2;ratioP2;P2;SDS_P1;SDS_P2;PMS_P1;PMS_P2;Temp;Humidity;BMP_temperature;BMP_pressure;BME280_temperature;BME280_humidity;BME280_pressure;Samples;Min_cycle;Max_cycle;Signal;HPM_P1;HPM_P2
2022/04/19 00:01:27;;;;;;;3.40;0.90;;;;;;;;;;5036868;28;20212;-66
2022/04/19 00:03:54;;;;;;;0.80;0.80;;;;;;;;;;5036845;28;20250;-66
2022/04/19 00:06:21;;;;;;;1.00;1.00;;;;;;;;;;5038034;28;20216;-66
2022/04/19 00:08:51;;;;;;;0.70;0.70;;;;;;;;;;5036218;28;20253;-66
2022/04/19 00:11:18;;;;;;;0.90;0.90;;;;;;;;;;5026857;28;20318;-65
2022/04/19 00:13:45;;;;;;;1.30;1.00;;;;;;;;;;5033168;28;20269;-66
2022/04/19 00:16:14;;;;;;;3.40;0.87;;;;;;;;;;5035335;28;20200;-65
2022/04/19 00:18:44;;;;;;;0.97;0.97;;;;;;;;;;5036133;28;20243;-65
2022/04/19 00:21:11;;;;;;;0.80;0.80;;;;;;;;;;5035299;28;20210;-65
2022/04/19 00:23:38;;;;;;;0.77;0.77;;;;;;;;;;5034686;28;20266;-65
2022/04/19 00:26:06;;;;;;;1.63;1.37;;;;;;;;;;5035902;28;20224;-65
2022/04/19 00:28:33;;;;;;;1.27;1.17;;;;;;;;;;5033094;28;20204;-64
2022/04/19 00:31:00;;;;;;;0.90;0.90;;;;;;;;;;5035846;28;20546;-64
2022/04/19 00:33:29;;;;;;;0.87;0.80;;;;;;;;;;5033125;28;20204;-65
2022/04/19 00:35:56;;;;;;;2.07;1.30;;;;;;;;;;5035600;28;20791;-65
2022/04/19 00:38:23;;;;;;;1.27;1.17;;;;;;;;;;5035704;28;20208;-65
2022/04/19 00:40:50;;;;;;;1.40;1.20;;;;;;;;;;5042545;28;20284;-65
2022/04/19 00:43:19;;;;;;;2.07;1.10;;;;;;;;;;5034391;28;20678;-64
2022/04/19 00:45:46;;;;;;;1.00;0.90;;;;;;;;;;5036597;28;20203;-66
2022/04/19 00:48:13;;;;;;;0.80;0.80;;;;;;;;;;5035541;28;20255;-66
2022/04/19 00:50:41;;;;;;;1.17;0.80;;;;;;;;;;5036453;28;20256;-66
2022/04/19 00:53:11;;;;;;;1.10;1.10;;;;;;;;;;5036387;28;20208;-66
2022/04/19 00:55:39;;;;;;;0.90;0.90;;;;;;;;;;5031336;28;20224;-66
2022/04/19 00:58:06;;;;;;;1.10;1.10;;;;;;;;;;5035165;28;20975;-66
2022/04/19 01:00:35;;;;;;;0.83;0.83;;;;;;;;;;5036648;28;20299;-65
2022/04/19 01:03:02;;;;;;;1.40;1.33;;;;;;;;;;5036287;28;20204;-65
2022/04/19 01:05:29;;;;;;;1.20;1.20;;;;;;;;;;5036026;28;20899;-65
2022/04/19 01:07:56;;;;;;;0.77;0.77;;;;;;;;;;5037050;28;20207;-63
2022/04/19 01:10:23;;;;;;;0.83;0.83;;;;;;;;;;5036370;28;20204;-64
2022/04/19 01:15:36;;;;;;;0.90;0.90;;;;;;;;;;5034220;28;20249;-65
2022/04/19 01:18:03;;;;;;;0.83;0.83;;;;;;;;;;5035910;28;20206;-64
2022/04/19 01:20:31;;;;;;;1.00;1.00;;;;;;;;;;5040273;28;20622;-64
2022/04/19 01:23:00;;;;;;;0.93;0.93;;;;;;;;;;5042159;28;20294;-64
2022/04/19 01:25:27;;;;;;;0.87;0.87;;;;;;;;;;5040251;28;20285;-64
2022/04/19 01:27:54;;;;;;;1.07;1.07;;;;;;;;;;5039707;28;20204;-64
2022/04/19 01:30:21;;;;;;;1.17;1.10;;;;;;;;;;5040352;28;20269;-65
2022/04/19 01:32:48;;;;;;;1.03;1.03;;;;;;;;;;5041613;28;20212;-65
2022/04/19 01:35:16;;;;;;;1.30;1.30;;;;;;;;;;5037664;28;20228;-64
2022/04/19 01:37:44;;;;;;;1.23;1.23;;;;;;;;;;5040702;28;20425;-65
2022/04/19 01:40:18;;;;;;;1.23;1.13;;;;;;;;;;5038321;28;20291;-64
2022/04/19 01:42:49;;;;;;;1.10;1.10;;;;;;;;;;5039556;28;20208;-66
2022/04/19 01:45:17;;;;;;;1.27;1.23;;;;;;;;;;5040219;28;20204;-66
2022/04/19 01:47:44;;;;;;;0.93;0.93;;;;;;;;;;5038080;28;20204;-65
2022/04/19 01:50:11;;;;;;;1.67;1.00;;;;;;;;;;5038761;28;20533;-66
2022/04/19 01:52:38;;;;;;;1.13;1.13;;;;;;;;;;5037978;28;20614;-65
2022/04/19 01:55:06;;;;;;;2.60;1.30;;;;;;;;;;5039539;28;20229;-65
2022/04/19 01:57:35;;;;;;;1.10;1.10;;;;;;;;;;5037829;28;20575;-65
2022/04/19 02:00:02;;;;;;;1.60;1.30;;;;;;;;;;5038671;28;20678;-65
2022/04/19 02:02:30;;;;;;;1.20;1.13;;;;;;;;;;5040484;28;20204;-64
2022/04/19 02:04:57;;;;;;;1.47;1.37;;;;;;;;;;5039093;28;20912;-65
2022/04/19 02:07:24;;;;;;;1.40;1.40;;;;;;;;;;5038307;28;20208;-65
2022/04/19 02:09:51;;;;;;;2.90;1.37;;;;;;;;;;5038089;28;20651;-64
2022/04/19 02:12:18;;;;;;;0.87;0.87;;;;;;;;;;5038588;28;20254;-64
2022/04/19 02:14:46;;;;;;;0.97;0.97;;;;;;;;;;5038139;28;20231;-65
2022/04/19 02:17:13;;;;;;;0.90;0.90;;;;;;;;;;5039269;28;20199;-64
2022/04/19 02:19:40;;;;;;;1.10;1.10;;;;;;;;;;5037084;28;20679;-66
2022/04/19 02:22:09;;;;;;;1.00;1.00;;;;;;;;;;5038479;28;20213;-65
2022/04/19 02:24:36;;;;;;;1.03;1.03;;;;;;;;;;5037433;28;20205;-65
2022/04/19 02:27:05;;;;;;;1.10;0.97;;;;;;;;;;5039142;28;20231;-65
2022/04/19 02:29:32;;;;;;;2.30;0.90;;;;;;;;;;5037739;28;20219;-65
2022/04/19 02:32:01;;;;;;;0.90;0.90;;;;;;;;;;5039807;28;20257;-65
2022/04/19 02:34:28;;;;;;;0.97;0.97;;;;;;;;;;5031095;28;20200;-65
2022/04/19 02:36:55;;;;;;;1.03;1.03;;;;;;;;;;5039252;28;20208;-65
2022/04/19 02:39:22;;;;;;;2.73;1.00;;;;;;;;;;5036989;28;20215;-65
2022/04/19 02:41:50;;;;;;;0.97;0.87;;;;;;;;;;5038808;28;20219;-65
2022/04/19 02:44:17;;;;;;;1.00;1.00;;;;;;;;;;5032784;28;20223;-65
2022/04/19 02:46:44;;;;;;;2.53;1.40;;;;;;;;;;5036860;28;20236;-65
2022/04/19 02:49:12;;;;;;;1.13;1.00;;;;;;;;;;5037444;28;20550;-65
2022/04/19 02:51:39;;;;;;;1.07;0.97;;;;;;;;;;5037879;28;20250;-65
2022/04/19 02:54:06;;;;;;;1.20;1.10;;;;;;;;;;5038933;28;20200;-65
2022/04/19 02:56:33;;;;;;;1.30;1.30;;;;;;;;;;5037810;28;20586;-65
2022/04/19 02:59:00;;;;;;;1.43;0.97;;;;;;;;;;5037516;28;20212;-65
2022/04/19 03:01:27;;;;;;;0.90;0.80;;;;;;;;;;5038005;28;20707;-64
2022/04/19 03:03:55;;;;;;;1.30;1.20;;;;;;;;;;5038871;28;20196;-64
2022/04/19 03:06:23;;;;;;;0.93;0.93;;;;;;;;;;5037341;28;20203;-65
2022/04/19 03:08:50;;;;;;;1.03;1.00;;;;;;;;;;5031834;28;20206;-65
2022/04/19 03:11:17;;;;;;;1.50;1.00;;;;;;;;;;5037351;28;20239;-65
2022/04/19 03:13:44;;;;;;;1.57;1.13;;;;;;;;;;5037284;28;20930;-65
2022/04/19 03:16:13;;;;;;;1.40;1.30;;;;;;;;;;5039405;28;20670;-65
2022/04/19 03:18:41;;;;;;;0.83;0.83;;;;;;;;;;5043548;28;20208;-65
2022/04/19 03:21:08;;;;;;;1.53;1.37;;;;;;;;;;5039487;28;20204;-65
2022/04/19 03:29:06;;;;;;;1.00;1.00;;;;;;;;;;5039757;28;20215;-64
2022/04/19 03:31:34;;;;;;;0.90;0.90;;;;;;;;;;5045400;28;20208;-65
2022/04/19 03:34:01;;;;;;;1.73;0.90;;;;;;;;;;5038778;28;20205;-65
2022/04/19 03:36:28;;;;;;;1.00;1.00;;;;;;;;;;5048989;28;20301;-64
2022/04/19 03:38:56;;;;;;;1.00;1.00;;;;;;;;;;5040066;28;20268;-65
2022/04/19 03:41:24;;;;;;;3.67;1.30;;;;;;;;;;5033189;28;20666;-65
2022/04/19 03:43:52;;;;;;;1.27;1.20;;;;;;;;;;5029803;28;20222;-65
2022/04/19 03:46:19;;;;;;;0.90;0.90;;;;;;;;;;5029231;28;20194;-63
2022/04/19 03:48:46;;;;;;;1.67;0.87;;;;;;;;;;5029733;28;20262;-63
2022/04/19 03:51:13;;;;;;;6.40;1.00;;;;;;;;;;5030960;28;20355;-66
2022/04/19 03:53:40;;;;;;;0.80;0.80;;;;;;;;;;5030425;28;20218;-63
2022/04/19 03:56:09;;;;;;;0.90;0.90;;;;;;;;;;5048407;28;20276;-65
2022/04/19 03:58:36;;;;;;;4.63;0.80;;;;;;;;;;5044920;28;20207;-63
2022/04/19 04:01:03;;;;;;;0.90;0.90;;;;;;;;;;5039145;28;20213;-63
2022/04/19 04:03:33;;;;;;;1.00;1.00;;;;;;;;;;5030786;28;20302;-64
2022/04/19 04:06:00;;;;;;;0.90;0.90;;;;;;;;;;5037024;28;20215;-64
2022/04/19 04:08:27;;;;;;;0.97;0.97;;;;;;;;;;5048650;28;20224;-64
2022/04/19 04:10:54;;;;;;;0.80;0.80;;;;;;;;;;5036270;28;20232;-65
2022/04/19 04:13:22;;;;;;;0.90;0.90;;;;;;;;;;5041106;28;21235;-64
2022/04/19 04:15:49;;;;;;;0.70;0.70;;;;;;;;;;5039247;28;20224;-64
2022/04/19 04:18:16;;;;;;;1.17;1.17;;;;;;;;;;5028552;28;20212;-65
2022/04/19 04:20:43;;;;;;;1.00;1.00;;;;;;;;;;5029097;28;20273;-64
2022/04/19 04:23:10;;;;;;;1.80;1.17;;;;;;;;;;5028500;28;20214;-64
2022/04/19 04:25:37;;;;;;;0.87;0.87;;;;;;;;;;5037560;28;20231;-64
2022/04/19 04:28:05;;;;;;;1.03;1.03;;;;;;;;;;5054274;28;20208;-64
2022/04/19 04:30:33;;;;;;;1.20;1.20;;;;;;;;;;5044867;28;20208;-64
2022/04/19 04:33:00;;;;;;;1.00;1.00;;;;;;;;;;5029642;28;20295;-64
2022/04/19 04:35:27;;;;;;;2.10;1.20;;;;;;;;;;5028988;28;20237;-64
2022/04/19 04:37:54;;;;;;;1.03;1.03;;;;;;;;;;5034055;28;20261;-65
2022/04/19 04:40:21;;;;;;;0.97;0.97;;;;;;;;;;5027456;28;20204;-65
2022/04/19 04:42:48;;;;;;;1.03;1.03;;;;;;;;;;5029330;28;20215;-65
2022/04/19 04:45:15;;;;;;;1.57;0.80;;;;;;;;;;5032109;28;20219;-65
2022/04/19 04:50:29;;;;;;;0.90;0.90;;;;;;;;;;5046265;28;20274;-66
2022/04/19 04:52:56;;;;;;;1.77;1.07;;;;;;;;;;5027875;28;20212;-65
2022/04/19 04:55:30;;;;;;;0.93;0.93;;;;;;;;;;5039677;28;20211;-65
2022/04/19 04:57:59;;;;;;;0.87;0.87;;;;;;;;;;5040099;28;20682;-64
2022/04/19 05:00:26;;;;;;;3.93;1.00;;;;;;;;;;5039560;28;20294;-65
2022/04/19 05:02:54;;;;;;;0.90;0.90;;;;;;;;;;5040044;28;20241;-65
2022/04/19 05:05:21;;;;;;;0.90;0.90;;;;;;;;;;5047054;28;20643;-65
2022/04/19 05:07:48;;;;;;;1.00;1.00;;;;;;;;;;5035751;28;20200;-65
2022/04/19 05:10:15;;;;;;;1.60;1.50;;;;;;;;;;5046197;28;20215;-66
2022/04/19 05:12:42;;;;;;;1.20;1.10;;;;;;;;;;5047368;28;20215;-65
2022/04/19 05:15:10;;;;;;;1.30;1.20;;;;;;;;;;5045209;28;20254;-65
2022/04/19 05:17:37;;;;;;;1.23;1.07;;;;;;;;;;5035262;28;20292;-65
2022/04/19 05:20:06;;;;;;;0.90;0.90;;;;;;;;;;5045281;28;20257;-65
2022/04/19 05:22:33;;;;;;;1.00;1.00;;;;;;;;;;5038758;28;20695;-65
2022/04/19 05:25:00;;;;;;;1.67;1.10;;;;;;;;;;5030656;28;20213;-65
2022/04/19 05:27:30;;;;;;;1.10;1.10;;;;;;;;;;5048151;28;20207;-66
2022/04/19 05:29:57;;;;;;;0.90;0.90;;;;;;;;;;5040211;28;20207;-65
2022/04/19 05:32:27;;;;;;;0.97;0.97;;;;;;;;;;5050658;28;20207;-65
2022/04/19 05:34:54;;;;;;;1.07;1.07;;;;;;;;;;5049206;28;20204;-65
2022/04/19 05:37:23;;;;;;;1.30;1.30;;;;;;;;;;5049498;28;20224;-65
2022/04/19 05:39:50;;;;;;;3.03;1.50;;;;;;;;;;5043922;28;20250;-65
2022/04/19 05:42:17;;;;;;;1.90;1.80;;;;;;;;;;5050046;28;20221;-65
2022/04/19 05:44:44;;;;;;;1.83;1.70;;;;;;;;;;5047941;28;20208;-65
2022/04/19 05:47:11;;;;;;;1.60;1.50;;;;;;;;;;5047413;28;20290;-65
2022/04/19 05:49:38;;;;;;;1.60;1.50;;;;;;;;;;5035322;28;20204;-65
2022/04/19 05:52:05;;;;;;;1.80;1.70;;;;;;;;;;5045766;28;20204;-64
2022/04/19 05:54:34;;;;;;;1.60;1.50;;;;;;;;;;5036814;28;20227;-65
2022/04/19 05:57:01;;;;;;;1.90;1.80;;;;;;;;;;5038843;28;20227;-65
2022/04/19 05:59:28;;;;;;;1.33;1.33;;;;;;;;;;5040953;28;20208;-65
2022/04/19 06:07:21;;;;;;;1.40;1.40;;;;;;;;;;5034715;28;20662;-64
2022/04/19 06:09:50;;;;;;;3.30;1.67;;;;;;;;;;5043224;28;20215;-63
2022/04/19 06:12:17;;;;;;;1.87;1.60;;;;;;;;;;5039661;28;20336;-65
2022/04/19 06:14:44;;;;;;;3.00;2.20;;;;;;;;;;5035301;28;20204;-64
2022/04/19 06:17:14;;;;;;;1.60;1.60;;;;;;;;;;5043079;28;20231;-64
2022/04/19 06:19:41;;;;;;;1.30;1.30;;;;;;;;;;5047519;28;20300;-64
2022/04/19 06:22:08;;;;;;;4.70;1.63;;;;;;;;;;5038805;28;20207;-65
2022/04/19 06:24:35;;;;;;;1.40;1.40;;;;;;;;;;5047249;28;20208;-65
2022/04/19 06:27:04;;;;;;;1.77;1.67;;;;;;;;;;5035663;28;20223;-64
2022/04/19 06:29:32;;;;;;;3.53;1.57;;;;;;;;;;5048379;28;20215;-65
2022/04/19 06:31:59;;;;;;;1.57;1.37;;;;;;;;;;5036039;28;20204;-64
2022/04/19 06:34:26;;;;;;;1.70;1.60;;;;;;;;;;5036540;28;20609;-67
2022/04/19 06:36:53;;;;;;;3.70;1.20;;;;;;;;;;5049225;28;20284;-66
2022/04/19 06:39:20;;;;;;;1.53;1.43;;;;;;;;;;5042376;28;20754;-65
2022/04/19 06:41:47;;;;;;;1.30;1.30;;;;;;;;;;5034875;28;20208;-65
2022/04/19 06:44:16;;;;;;;2.77;1.53;;;;;;;;;;5035494;28;20240;-65
2022/04/19 06:46:44;;;;;;;1.70;1.67;;;;;;;;;;5029841;28;20661;-65
2022/04/19 06:49:12;;;;;;;1.50;1.40;;;;;;;;;;5035803;28;20226;-65
2022/04/19 06:51:39;;;;;;;1.60;1.33;;;;;;;;;;5040595;28;20579;-65
2022/04/19 06:54:06;;;;;;;2.73;1.77;;;;;;;;;;5030553;28;20212;-65
2022/04/19 06:56:33;;;;;;;2.93;2.03;;;;;;;;;;5029569;28;20260;-65
2022/04/19 06:59:00;;;;;;;2.33;2.07;;;;;;;;;;5036186;28;20213;-65
2022/04/19 07:01:29;;;;;;;1.63;1.57;;;;;;;;;;5033127;28;20220;-65
2022/04/19 07:03:56;;;;;;;1.30;1.30;;;;;;;;;;5032354;28;20296;-65
2022/04/19 07:06:23;;;;;;;1.93;1.30;;;;;;;;;;5048057;28;20199;-65
2022/04/19 07:08:50;;;;;;;3.30;1.77;;;;;;;;;;5033445;28;20215;-65
2022/04/19 07:11:17;;;;;;;2.07;1.97;;;;;;;;;;5040697;28;20235;-65
2022/04/19 07:13:44;;;;;;;1.47;1.47;;;;;;;;;;5039966;28;20212;-65
2022/04/19 07:16:11;;;;;;;2.47;1.73;;;;;;;;;;5040688;28;20294;-65
2022/04/19 07:18:40;;;;;;;1.50;1.40;;;;;;;;;;5038880;28;20207;-64
2022/04/19 07:26:38;;;;;;;1.53;1.43;;;;;;;;;;5029321;28;20235;-65
2022/04/19 07:29:06;;;;;;;1.33;1.23;;;;;;;;;;5029458;28;20259;-65
2022/04/19 07:31:33;;;;;;;1.60;1.50;;;;;;;;;;5033367;28;20204;-64
2022/04/19 07:34:01;;;;;;;1.77;1.70;;;;;;;;;;5038803;28;20839;-65
2022/04/19 07:36:29;;;;;;;2.00;1.90;;;;;;;;;;5038739;28;20228;-65
2022/04/19 07:38:57;;;;;;;1.55;1.45;;;;;;;;;;5030100;28;20682;-65
2022/04/19 07:41:31;;;;;;;2.50;1.48;;;;;;;;;;5031581;28;20235;-62
2022/04/19 07:43:59;;;;;;;1.40;1.30;;;;;;;;;;5048250;28;20218;-61
2022/04/19 07:46:26;;;;;;;1.73;1.63;;;;;;;;;;5043936;28;20391;-66
2022/04/19 07:48:53;;;;;;;1.40;1.40;;;;;;;;;;5038718;28;20690;-69
2022/04/19 07:51:21;;;;;;;2.83;1.50;;;;;;;;;;5029274;28;20208;-66
2022/04/19 07:53:48;;;;;;;2.00;1.90;;;;;;;;;;5032685;28;20205;-65
2022/04/19 07:56:15;;;;;;;1.98;1.63;;;;;;;;;;5029862;28;20208;-69
2022/04/19 07:58:45;;;;;;;1.83;1.70;;;;;;;;;;5032063;28;20262;-67
2022/04/19 08:01:12;;;;;;;2.30;1.40;;;;;;;;;;5028695;28;20319;-64
2022/04/19 08:03:39;;;;;;;1.77;1.67;;;;;;;;;;5037058;28;20215;-67
2022/04/19 08:06:06;;;;;;;4.07;1.70;;;;;;;;;;5046649;28;20633;-64
2022/04/19 08:08:35;;;;;;;2.15;2.05;;;;;;;;;;5048193;28;20261;-64
2022/04/19 08:11:03;;;;;;;3.33;1.83;;;;;;;;;;5044437;28;20298;-64
2022/04/19 08:13:30;;;;;;;2.03;1.80;;;;;;;;;;5041643;28;20745;-64
2022/04/19 08:15:57;;;;;;;2.10;1.90;;;;;;;;;;5042772;28;20200;-64
2022/04/19 08:18:24;;;;;;;2.30;1.92;;;;;;;;;;5028546;28;20596;-66
2022/04/19 08:20:52;;;;;;;2.13;2.03;;;;;;;;;;5046297;28;20208;-65
2022/04/19 08:23:19;;;;;;;2.00;1.80;;;;;;;;;;5030438;28;20782;-68
2022/04/19 08:25:47;;;;;;;1.77;1.65;;;;;;;;;;5041527;28;20231;-69
2022/04/19 08:28:14;;;;;;;1.73;1.63;;;;;;;;;;5048695;28;20203;-69
2022/04/19 08:30:41;;;;;;;2.40;2.20;;;;;;;;;;5037452;28;20203;-70
2022/04/19 08:33:08;;;;;;;2.05;1.92;;;;;;;;;;5034971;28;20204;-69
2022/04/19 08:35:35;;;;;;;2.00;1.90;;;;;;;;;;5049093;28;20207;-70
2022/04/19 08:38:02;;;;;;;2.40;2.13;;;;;;;;;;5032183;28;20227;-70
2022/04/19 08:40:32;;;;;;;1.77;1.65;;;;;;;;;;5040725;28;20671;-68
2022/04/19 08:43:01;;;;;;;4.80;2.50;;;;;;;;;;5037579;28;20211;-63
2022/04/19 08:45:28;;;;;;;2.28;2.17;;;;;;;;;;5037747;28;20308;-72
2022/04/19 08:47:57;;;;;;;2.45;2.15;;;;;;;;;;5031855;28;20659;-70
2022/04/19 08:50:24;;;;;;;2.58;2.08;;;;;;;;;;5037496;28;20203;-68
2022/04/19 08:57:29;;;;;;;4.40;2.78;;;;;;;;;;5048888;28;20204;-71
2022/04/19 08:58:24;;;;;;;1.90;1.80;;;;;;;;;;5046938;28;20242;-67
2022/04/19 09:00:51;;;;;;;2.63;2.40;;;;;;;;;;5033084;28;20212;-67
2022/04/19 09:03:20;;;;;;;2.28;1.98;;;;;;;;;;5037228;28;20228;-68
2022/04/19 09:05:51;;;;;;;2.75;2.55;;;;;;;;;;5038171;28;20208;-67
2022/04/19 09:08:19;;;;;;;2.67;2.47;;;;;;;;;;5036605;28;20219;-67
2022/04/19 09:10:46;;;;;;;3.22;2.15;;;;;;;;;;5047710;28;20317;-67
2022/04/19 09:13:14;;;;;;;2.45;2.30;;;;;;;;;;5043265;28;20208;-67
2022/04/19 09:15:43;;;;;;;2.85;2.03;;;;;;;;;;5031669;28;20242;-67
2022/04/19 09:18:14;;;;;;;3.78;2.38;;;;;;;;;;5040636;28;20227;-68
2022/04/19 09:20:41;;;;;;;2.70;2.50;;;;;;;;;;5032519;28;20835;-68
2022/04/19 09:23:10;;;;;;;2.50;2.30;;;;;;;;;;5049026;28;20214;-69
2022/04/19 09:25:37;;;;;;;2.95;2.67;;;;;;;;;;5039277;28;20372;-68
2022/04/19 09:28:15;;;;;;;2.65;2.45;;;;;;;;;;5032423;28;20566;-69
2022/04/19 09:30:44;;;;;;;2.92;2.45;;;;;;;;;;5029871;28;20204;-71
2022/04/19 09:33:11;;;;;;;3.08;2.88;;;;;;;;;;5042007;28;20219;-68
2022/04/19 09:35:39;;;;;;;5.05;2.63;;;;;;;;;;5049106;28;20199;-69
2022/04/19 09:38:07;;;;;;;4.00;2.88;;;;;;;;;;5044668;28;20216;-69
2022/04/19 09:40:36;;;;;;;3.20;2.90;;;;;;;;;;5033810;28;20219;-69
2022/04/19 09:43:16;;;;;;;2.50;2.30;;;;;;;;;;5047250;28;20219;-66
2022/04/19 09:45:50;;;;;;;2.50;2.30;;;;;;;;;;5044080;28;20210;-67
2022/04/19 09:48:17;;;;;;;2.53;2.33;;;;;;;;;;5031609;28;20202;-67
2022/04/19 09:50:51;;;;;;;3.20;1.85;;;;;;;;;;5039557;28;20203;-67
2022/04/19 09:53:19;;;;;;;5.38;2.45;;;;;;;;;;5038559;28;20211;-67
2022/04/19 09:55:50;;;;;;;2.40;2.30;;;;;;;;;;5033315;28;20706;-66
2022/04/19 09:58:17;;;;;;;2.92;2.72;;;;;;;;;;5038225;28;20769;-66
2022/04/19 10:00:45;;;;;;;3.20;2.58;;;;;;;;;;5036830;28;20215;-66
2022/04/19 10:08:45;;;;;;;3.63;2.75;;;;;;;;;;5034615;28;20653;-67
2022/04/19 10:11:12;;;;;;;4.53;3.67;;;;;;;;;;5047768;28;20635;-67
2022/04/19 10:13:40;;;;;;;3.97;3.50;;;;;;;;;;5046002;28;20207;-66
2022/04/19 10:16:12;;;;;;;4.03;3.28;;;;;;;;;;5039729;28;20208;-67
2022/04/19 10:18:40;;;;;;;3.33;2.60;;;;;;;;;;5040470;28;20227;-67
2022/04/19 10:21:08;;;;;;;2.60;2.40;;;;;;;;;;5049938;28;20713;-67
2022/04/19 10:23:36;;;;;;;3.67;2.50;;;;;;;;;;5042797;28;20212;-67
2022/04/19 10:26:17;;;;;;;4.82;3.67;;;;;;;;;;5048244;28;20410;-67
2022/04/19 10:28:46;;;;;;;4.78;2.92;;;;;;;;;;5034256;28;20205;-67
2022/04/19 10:31:13;;;;;;;3.42;3.13;;;;;;;;;;5045965;28;20287;-66
2022/04/19 10:33:45;;;;;;;3.42;3.10;;;;;;;;;;5039215;28;20216;-66
2022/04/19 10:36:17;;;;;;;5.03;2.97;;;;;;;;;;5036166;28;20208;-66
2022/04/19 10:38:44;;;;;;;6.15;3.60;;;;;;;;;;5038843;28;20223;-66
2022/04/19 10:41:12;;;;;;;3.30;3.00;;;;;;;;;;5035844;28;20204;-68
2022/04/19 10:43:39;;;;;;;3.10;2.80;;;;;;;;;;5040967;28;20294;-68
2022/04/19 10:46:19;;;;;;;3.30;3.00;;;;;;;;;;5042339;28;20204;-71
2022/04/19 10:49:01;;;;;;;3.60;3.30;;;;;;;;;;5038452;28;20200;-65
2022/04/19 10:51:32;;;;;;;3.25;2.95;;;;;;;;;;5029944;28;20212;-66
2022/04/19 10:53:59;;;;;;;3.22;2.92;;;;;;;;;;5033204;28;20209;-66
2022/04/19 10:56:26;;;;;;;4.40;2.80;;;;;;;;;;5037308;28;20215;-66
2022/04/19 10:58:54;;;;;;;3.85;3.28;;;;;;;;;;5040364;28;20254;-65
2022/04/19 11:01:30;;;;;;;5.28;2.80;;;;;;;;;;5048634;28;20650;-66
2022/04/19 11:03:58;;;;;;;3.70;3.13;;;;;;;;;;5049628;28;20305;-65
2022/04/19 11:06:40;;;;;;;4.32;3.72;;;;;;;;;;5038594;28;20204;-63
2022/04/19 11:09:08;;;;;;;4.65;3.10;;;;;;;;;;5033283;28;20651;-64
2022/04/19 11:11:45;;;;;;;3.42;3.10;;;;;;;;;;5028835;28;20770;-63
2022/04/19 11:14:36;;;;;;;4.60;3.75;;;;;;;;;;5046346;28;20677;-64
2022/04/19 11:17:23;;;;;;;3.80;3.17;;;;;;;;;;5049389;28;20258;-64
2022/04/19 11:19:54;;;;;;;6.32;3.40;;;;;;;;;;5048726;28;20666;-64
2022/04/19 11:22:43;;;;;;;3.25;3.00;;;;;;;;;;5048851;28;20216;-63
2022/04/19 11:25:11;;;;;;;3.42;3.13;;;;;;;;;;5029137;28;20211;-64
2022/04/19 11:27:57;;;;;;;3.47;2.40;;;;;;;;;;5030561;28;20203;-64
2022/04/19 11:30:24;;;;;;;2.75;2.55;;;;;;;;;;5028066;28;20203;-64
2022/04/19 11:32:52;;;;;;;2.45;2.08;;;;;;;;;;5033811;28;20201;-64
2022/04/19 11:35:20;;;;;;;3.03;2.72;;;;;;;;;;5030541;28;20698;-67
2022/04/19 11:37:48;;;;;;;3.80;3.30;;;;;;;;;;5046914;28;20770;-63
2022/04/19 11:48:32;;;;;;;3.65;3.30;;;;;;;;;;5033801;28;20680;-68
2022/04/19 11:51:08;;;;;;;3.55;2.97;;;;;;;;;;5041733;28;20204;-69
2022/04/19 11:53:37;;;;;;;3.85;3.15;;;;;;;;;;5034369;28;20306;-68
2022/04/19 11:56:06;;;;;;;3.47;3.17;;;;;;;;;;5043832;28;20200;-69
2022/04/19 11:58:33;;;;;;;3.50;3.25;;;;;;;;;;5041283;28;20231;-69
2022/04/19 12:01:03;;;;;;;3.25;3.00;;;;;;;;;;5042336;28;20208;-69
2022/04/19 12:03:32;;;;;;;4.88;3.03;;;;;;;;;;5039902;28;20291;-69
2022/04/19 12:06:05;;;;;;;2.58;2.25;;;;;;;;;;5031643;28;20625;-69
2022/04/19 12:08:34;;;;;;;2.83;2.63;;;;;;;;;;5041936;28;20212;-69
2022/04/19 12:11:04;;;;;;;1.63;1.63;;;;;;;;;;5044630;28;20322;-68
2022/04/19 12:13:31;;;;;;;2.78;2.58;;;;;;;;;;5016945;28;20624;-69
2022/04/19 12:16:00;;;;;;;2.58;2.38;;;;;;;;;;5032477;28;20211;-68
2022/04/19 12:18:31;;;;;;;3.08;2.78;;;;;;;;;;5033852;28;20340;-66
2022/04/19 12:20:58;;;;;;;1.88;1.13;;;;;;;;;;5029394;28;20315;-66
2022/04/19 12:23:25;;;;;;;2.05;1.85;;;;;;;;;;5037519;28;20753;-66
2022/04/19 12:25:59;;;;;;;3.08;2.30;;;;;;;;;;5040768;28;20288;-70
2022/04/19 12:28:36;;;;;;;3.00;2.75;;;;;;;;;;5047960;28;20210;-67
2022/04/19 12:31:03;;;;;;;2.15;2.05;;;;;;;;;;5034044;28;20270;-66
2022/04/19 12:33:30;;;;;;;2.55;2.40;;;;;;;;;;5029567;28;20208;-66
2022/04/19 12:35:58;;;;;;;2.40;2.30;;;;;;;;;;5027574;28;20220;-66
2022/04/19 12:38:30;;;;;;;2.00;1.90;;;;;;;;;;5025629;28;20656;-68
2022/04/19 12:40:57;;;;;;;1.50;1.40;;;;;;;;;;5024474;28;20204;-67
2022/04/19 12:43:39;;;;;;;1.50;1.40;;;;;;;;;;5037590;28;20236;-67
2022/04/19 12:46:08;;;;;;;1.73;1.55;;;;;;;;;;5051148;28;20214;-67
2022/04/19 12:48:35;;;;;;;0.85;0.85;;;;;;;;;;5027428;28;20208;-67
2022/04/19 12:51:02;;;;;;;1.17;1.15;;;;;;;;;;5028351;28;20200;-69
2022/04/19 12:53:29;;;;;;;0.85;0.85;;;;;;;;;;5027506;28;20204;-72
2022/04/19 12:55:56;;;;;;;2.50;0.90;;;;;;;;;;5044986;28;20207;-71
2022/04/19 12:58:23;;;;;;;1.08;0.98;;;;;;;;;;5025302;28;20244;-71
2022/04/19 13:00:50;;;;;;;1.08;1.08;;;;;;;;;;5030721;28;20441;-71
2022/04/19 13:03:18;;;;;;;0.73;0.73;;;;;;;;;;5027116;28;20215;-70
2022/04/19 13:13:59;;;;;;;0.82;0.82;;;;;;;;;;5030890;28;20215;-71
2022/04/19 13:16:26;;;;;;;0.80;0.80;;;;;;;;;;5050684;28;20229;-71
2022/04/19 13:18:54;;;;;;;0.80;0.80;;;;;;;;;;5051299;28;20239;-71
2022/04/19 13:21:24;;;;;;;0.80;0.80;;;;;;;;;;5050939;28;20277;-71
2022/04/19 13:23:51;;;;;;;1.17;1.10;;;;;;;;;;5051234;28;20234;-71
2022/04/19 13:26:18;;;;;;;0.70;0.70;;;;;;;;;;5050650;28;20228;-72
2022/04/19 13:28:45;;;;;;;0.52;0.40;;;;;;;;;;5051448;28;20211;-70
2022/04/19 13:31:12;;;;;;;0.73;0.73;;;;;;;;;;5050993;28;20216;-69
2022/04/19 13:33:40;;;;;;;0.70;0.70;;;;;;;;;;5050907;28;20211;-69
2022/04/19 13:36:08;;;;;;;0.50;0.50;;;;;;;;;;5050554;28;20281;-69
2022/04/19 13:38:37;;;;;;;0.60;0.60;;;;;;;;;;5050964;28;20228;-71
2022/04/19 13:41:04;;;;;;;0.40;0.40;;;;;;;;;;5044768;28;20208;-70
2022/04/19 13:43:31;;;;;;;0.47;0.47;;;;;;;;;;5044600;28;20222;-70
2022/04/19 13:45:58;;;;;;;0.60;0.57;;;;;;;;;;5050226;28;20204;-70
2022/04/19 13:48:26;;;;;;;0.70;0.70;;;;;;;;;;5050852;28;20269;-71
2022/04/19 13:50:54;;;;;;;1.10;0.55;;;;;;;;;;5050637;28;20230;-70
2022/04/19 13:53:22;;;;;;;0.52;0.52;;;;;;;;;;5050521;28;20333;-70
2022/04/19 13:55:50;;;;;;;1.25;0.60;;;;;;;;;;5050016;28;20200;-69
2022/04/19 13:58:17;;;;;;;1.65;0.85;;;;;;;;;;5047845;28;20278;-66
2022/04/19 14:00:45;;;;;;;0.60;0.60;;;;;;;;;;5049709;28;20216;-65
2022/04/19 14:03:15;;;;;;;1.63;0.68;;;;;;;;;;5050429;28;20667;-68
2022/04/19 14:05:42;;;;;;;1.55;0.80;;;;;;;;;;5049617;28;20207;-67
2022/04/19 14:08:09;;;;;;;0.70;0.70;;;;;;;;;;5044258;28;20261;-68
2022/04/19 14:10:37;;;;;;;0.63;0.50;;;;;;;;;;5042077;28;20259;-67
2022/04/19 14:13:05;;;;;;;0.60;0.60;;;;;;;;;;5046381;28;20269;-67
2022/04/19 14:15:32;;;;;;;2.92;0.52;;;;;;;;;;5031341;28;20906;-66
2022/04/19 14:17:59;;;;;;;0.60;0.60;;;;;;;;;;5033584;28;20212;-66
2022/04/19 14:20:26;;;;;;;0.50;0.50;;;;;;;;;;5049702;28;20211;-72
2022/04/19 14:22:58;;;;;;;0.50;0.50;;;;;;;;;;5041889;28;20208;-68
2022/04/19 14:25:26;;;;;;;3.05;0.93;;;;;;;;;;5034528;28;20235;-63
2022/04/19 14:27:54;;;;;;;1.20;0.28;;;;;;;;;;5041592;28;20571;-68
2022/04/19 14:33:19;;;;;;;0.35;0.35;;;;;;;;;;5032702;28;20211;-75
2022/04/19 14:35:47;;;;;;;0.57;0.57;;;;;;;;;;5040258;28;20218;-75
2022/04/19 14:38:15;;;;;;;0.70;0.70;;;;;;;;;;5049404;28;20726;-75
2022/04/19 14:40:42;;;;;;;0.70;0.70;;;;;;;;;;5035511;28;20289;-68
2022/04/19 14:43:10;;;;;;;0.88;0.88;;;;;;;;;;5040520;28;20215;-64
2022/04/19 14:45:37;;;;;;;1.20;0.57;;;;;;;;;;5044312;28;20242;-72
2022/04/19 14:48:07;;;;;;;0.65;0.65;;;;;;;;;;5048710;28;20265;-72
2022/04/19 14:52:13;;;;;;;0.40;0.40;;;;;;;;;;5036795;28;20201;-74
2022/04/19 14:53:23;;;;;;;0.80;0.80;;;;;;;;;;5039658;28;20589;-74
2022/04/19 14:55:50;;;;;;;0.40;0.40;;;;;;;;;;5048861;28;20224;-74
2022/04/19 14:58:18;;;;;;;0.95;0.95;;;;;;;;;;5052648;28;20266;-73
2022/04/19 15:00:45;;;;;;;0.90;0.90;;;;;;;;;;5033035;28;20212;-74
2022/04/19 15:03:13;;;;;;;1.23;1.23;;;;;;;;;;5033664;28;20223;-75
2022/04/19 15:05:40;;;;;;;0.77;0.60;;;;;;;;;;5043875;28;20223;-73
2022/04/19 15:08:07;;;;;;;0.55;0.55;;;;;;;;;;5046030;28;20235;-75
2022/04/19 15:10:34;;;;;;;0.65;0.63;;;;;;;;;;5031895;28;20783;-73
2022/04/19 15:13:01;;;;;;;2.22;0.50;;;;;;;;;;5037475;28;20207;-73
2022/04/19 15:15:30;;;;;;;1.10;0.85;;;;;;;;;;5046675;28;20207;-73
2022/04/19 15:17:57;;;;;;;0.40;0.40;;;;;;;;;;5047121;28;20216;-75
2022/04/19 15:20:24;;;;;;;2.63;0.70;;;;;;;;;;5028311;28;20228;-73
2022/04/19 15:22:51;;;;;;;0.60;0.60;;;;;;;;;;5031293;28;20203;-73
2022/04/19 15:25:18;;;;;;;0.63;0.63;;;;;;;;;;5046964;28;20243;-73
2022/04/19 15:27:46;;;;;;;1.00;0.98;;;;;;;;;;5041467;28;20207;-73
2022/04/19 15:30:13;;;;;;;0.60;0.60;;;;;;;;;;5033417;28;20232;-73
2022/04/19 15:32:41;;;;;;;0.70;0.70;;;;;;;;;;5027502;28;20199;-77
2022/04/19 15:35:09;;;;;;;0.50;0.47;;;;;;;;;;5029237;28;20220;-64
2022/04/19 15:37:36;;;;;;;1.02;0.50;;;;;;;;;;5032324;28;20237;-69
2022/04/19 15:40:03;;;;;;;0.93;0.93;;;;;;;;;;5039754;28;20279;-66